Time;durP1;ratioP1;P1;durP2;ratioP2;P2;SDS_P1;SDS_P2;PMS_P1;PMS_P2;Temp;Humidity;BMP_temperature;BMP_pressure;BME280_temperature;BME280_humidity;BME280_pressure;Samples;Min_cycle;Max_cycle;Signal;HPM_P1;HPM_P2
2022/12/07 00:01:17;;;;;;;18.40;10.00;;;2.40;99.90;;;;;;5050986;28;20044;-70
2022/12/07 00:03:44;;;;;;;17.92;9.48;;;2.40;99.90;;;;;;5046237;28;20041;-69
2022/12/07 00:06:12;;;;;;;18.95;9.82;;;2.40;99.90;;;;;;5042865;28;20588;-69
2022/12/07 00:08:39;;;;;;;18.77;9.77;;;2.30;99.90;;;;;;5052893;28;20064;-70
2022/12/07 00:11:15;;;;;;;19.52;10.45;;;2.30;99.90;;;;;;5040808;28;20035;-69
2022/12/07 00:13:41;;;;;;;21.92;9.90;;;2.30;99.90;;;;;;5046871;28;20407;-69
2022/12/07 00:16:12;;;;;;;17.90;9.32;;;2.40;99.90;;;;;;5049251;28;20036;-70
2022/12/07 00:18:38;;;;;;;18.42;8.50;;;2.40;99.90;;;;;;5039453;28;20408;-69
2022/12/07 00:21:07;;;;;;;22.67;10.32;;;2.20;99.90;;;;;;5051805;28;20022;-69
2022/12/07 00:23:33;;;;;;;18.08;9.20;;;2.20;99.90;;;;;;5044299;28;20033;-70
2022/12/07 00:26:07;;;;;;;17.85;9.55;;;2.20;99.90;;;;;;5044125;28;20124;-69
2022/12/07 00:28:33;;;;;;;18.23;9.55;;;2.20;99.90;;;;;;5052474;28;20029;-69
2022/12/07 00:31:10;;;;;;;23.75;11.20;;;2.20;99.90;;;;;;5039549;28;20127;-70
2022/12/07 00:33:38;;;;;;;26.88;11.70;;;2.20;99.90;;;;;;5013478;28;20033;-70
2022/12/07 00:36:07;;;;;;;21.08;11.35;;;2.30;99.90;;;;;;5028275;28;20388;-70
2022/12/07 00:38:35;;;;;;;20.20;10.50;;;2.40;99.90;;;;;;5037497;28;20128;-70
2022/12/07 00:41:04;;;;;;;18.58;10.20;;;2.30;99.90;;;;;;5051939;28;20545;-69
2022/12/07 00:43:30;;;;;;;17.42;9.05;;;2.40;99.90;;;;;;5043912;28;20095;-69
2022/12/07 00:45:57;;;;;;;16.35;10.02;;;2.30;99.90;;;;;;5044127;28;20488;-69
2022/12/07 00:48:23;;;;;;;16.52;8.57;;;2.30;99.90;;;;;;5050880;28;20075;-70
2022/12/07 00:50:49;;;;;;;23.88;10.02;;;2.30;99.90;;;;;;5038912;28;20094;-69
2022/12/07 00:53:15;;;;;;;19.00;9.27;;;2.40;99.90;;;;;;5049671;28;20680;-70
2022/12/07 00:55:42;;;;;;;16.58;8.60;;;2.40;99.90;;;;;;5045171;28;20175;-70
2022/12/07 00:58:07;;;;;;;26.85;11.68;;;2.40;99.90;;;;;;5042283;28;20042;-70
2022/12/07 01:00:36;;;;;;;21.92;10.48;;;2.30;99.90;;;;;;5049684;28;20510;-69
2022/12/07 01:03:03;;;;;;;23.98;11.02;;;2.20;99.90;;;;;;5039667;28;20029;-69
2022/12/07 01:05:29;;;;;;;22.50;10.88;;;2.20;99.90;;;;;;5047689;28;20034;-69
2022/12/07 01:07:54;;;;;;;20.25;10.27;;;2.20;99.90;;;;;;5046618;28;20043;-69
2022/12/07 01:10:20;;;;;;;23.02;10.48;;;2.30;99.90;;;;;;5040140;28;20088;-69
2022/12/07 01:12:46;;;;;;;18.85;9.82;;;2.30;99.90;;;;;;5051504;28;20120;-69
2022/12/07 01:15:12;;;;;;;17.02;8.32;;;2.30;99.90;;;;;;5040678;28;20037;-70
2022/12/07 01:17:38;;;;;;;18.75;9.27;;;2.30;99.90;;;;;;5045763;28;20060;-69
2022/12/07 01:20:04;;;;;;;17.88;9.02;;;2.30;99.90;;;;;;5047620;28;20079;-69
2022/12/07 01:22:30;;;;;;;15.35;8.82;;;2.40;99.90;;;;;;5038563;28;20480;-70
2022/12/07 01:24:55;;;;;;;15.85;9.07;;;2.40;99.90;;;;;;5051251;28;20079;-69
2022/12/07 01:27:21;;;;;;;17.42;8.98;;;2.40;99.90;;;;;;5041749;28;20044;-69
2022/12/07 01:29:47;;;;;;;15.93;9.23;;;2.40;99.90;;;;;;5044560;28;20037;-69
2022/12/07 01:32:13;;;;;;;16.73;9.27;;;2.40;99.90;;;;;;5048702;28;20037;-70
2022/12/07 01:34:38;;;;;;;20.73;10.07;;;2.30;99.90;;;;;;5038196;28;20025;-69
2022/12/07 01:37:04;;;;;;;16.60;9.52;;;2.30;99.90;;;;;;5049423;28;20060;-70
2022/12/07 01:39:30;;;;;;;17.30;8.85;;;2.30;99.90;;;;;;5042700;28;20045;-69
2022/12/07 01:41:56;;;;;;;18.05;9.80;;;2.30;99.90;;;;;;5043120;28;20040;-69
2022/12/07 01:44:31;;;;;;;17.45;9.32;;;2.30;99.90;;;;;;5031781;28;20043;-69
2022/12/07 01:47:04;;;;;;;19.10;10.40;;;2.20;99.90;;;;;;5037829;28;20154;-69
2022/12/07 01:49:42;;;;;;;17.30;9.35;;;2.30;99.90;;;;;;5046476;28;20033;-70
2022/12/07 01:52:16;;;;;;;19.20;10.68;;;2.30;99.90;;;;;;5047532;28;20044;-70
2022/12/07 01:54:44;;;;;;;21.38;10.27;;;2.20;99.90;;;;;;5037882;28;20488;-69
2022/12/07 01:57:11;;;;;;;21.38;10.75;;;2.30;99.90;;;;;;5031172;28;20051;-69
2022/12/07 01:59:37;;;;;;;19.00;9.68;;;2.20;99.90;;;;;;5043274;28;20032;-69
2022/12/07 02:02:12;;;;;;;21.95;10.95;;;2.10;99.90;;;;;;5041887;28;20037;-69
2022/12/07 02:04:37;;;;;;;22.80;10.02;;;2.20;99.90;;;;;;5050547;28;20400;-69
2022/12/07 02:07:05;;;;;;;18.92;10.10;;;2.20;99.90;;;;;;5038454;28;20033;-69
2022/12/07 02:09:31;;;;;;;16.98;9.70;;;2.20;99.90;;;;;;5045952;28;20235;-70
2022/12/07 02:11:57;;;;;;;21.38;9.88;;;2.20;99.90;;;;;;5045695;28;20025;-69
2022/12/07 02:14:23;;;;;;;17.67;9.70;;;2.20;99.90;;;;;;5038862;28;20041;-70
2022/12/07 02:17:14;;;;;;;16.70;9.00;;;2.10;99.90;;;;;;5050398;28;20399;-69
2022/12/07 02:19:58;;;;;;;23.88;10.73;;;2.10;99.90;;;;;;5043376;28;20125;-69
2022/12/07 02:22:43;;;;;;;19.70;10.10;;;2.10;99.90;;;;;;5038578;28;20033;-69
2022/12/07 02:25:22;;;;;;;19.75;9.60;;;2.00;99.90;;;;;;5024367;28;20123;-69
2022/12/07 02:28:04;;;;;;;23.05;11.43;;;2.10;99.90;;;;;;5043405;28;20435;-69
2022/12/07 02:30:40;;;;;;;26.20;11.30;;;2.10;99.90;;;;;;5031405;28;20083;-70
2022/12/07 02:33:14;;;;;;;23.75;11.10;;;2.00;99.90;;;;;;5023345;28;20039;-69
2022/12/07 02:36:08;;;;;;;22.45;11.07;;;2.00;99.90;;;;;;5044504;28;20120;-69
2022/12/07 02:38:45;;;;;;;18.23;9.52;;;1.90;99.90;;;;;;5009959;28;20107;-69
2022/12/07 02:41:21;;;;;;;19.73;9.90;;;1.90;99.90;;;;;;5039070;28;20475;-69
2022/12/07 02:44:03;;;;;;;22.40;11.35;;;1.90;99.90;;;;;;5043186;28;20041;-69
2022/12/07 02:46:42;;;;;;;22.45;10.60;;;1.90;99.90;;;;;;5049504;28;20545;-69
2022/12/07 02:49:09;;;;;;;18.45;9.88;;;1.90;99.90;;;;;;5022860;28;20068;-69
2022/12/07 02:51:40;;;;;;;20.58;10.73;;;1.90;99.90;;;;;;5044990;28;20121;-69
2022/12/07 02:54:18;;;;;;;19.23;10.88;;;1.90;99.90;;;;;;5046566;28;20082;-69
2022/12/07 02:56:44;;;;;;;20.17;10.75;;;2.00;99.90;;;;;;5036860;28;20037;-69
2022/12/07 02:59:09;;;;;;;19.77;10.10;;;1.90;99.90;;;;;;5048332;28;20095;-69
2022/12/07 03:02:14;;;;;;;21.23;11.52;;;1.90;99.90;;;;;;5042094;28;20575;-69
2022/12/07 03:05:35;;;;;;;20.77;11.35;;;1.90;99.90;;;;;;5036645;28;20052;-69
2022/12/07 03:08:01;;;;;;;19.48;10.20;;;1.80;99.90;;;;;;4959441;28;20039;-69
2022/12/07 03:10:48;;;;;;;15.30;7.68;;;1.80;99.90;;;;;;5024584;28;20092;-69
2022/12/07 03:13:58;;;;;;;17.27;8.90;;;1.70;99.90;;;;;;5025094;28;20072;-69
2022/12/07 03:16:30;;;;;;;14.75;7.78;;;1.70;99.90;;;;;;5037840;28;20033;-69
2022/12/07 03:19:07;;;;;;;17.08;7.78;;;1.70;99.90;;;;;;5049643;28;20053;-69
2022/12/07 03:21:44;;;;;;;12.18;6.22;;;1.70;99.90;;;;;;5041622;28;20064;-69
2022/12/07 03:24:18;;;;;;;11.10;5.85;;;1.70;99.90;;;;;;5039855;28;20037;-69
2022/12/07 03:26:52;;;;;;;13.05;6.53;;;1.70;99.90;;;;;;5049617;28;20064;-69
2022/12/07 03:29:28;;;;;;;11.93;6.32;;;1.70;99.90;;;;;;5039414;28;20067;-68
2022/12/07 03:32:10;;;;;;;9.73;5.93;;;1.70;99.90;;;;;;5041886;28;20349;-68
2022/12/07 03:35:08;;;;;;;11.13;6.65;;;1.70;99.90;;;;;;5031762;28;20450;-69
2022/12/07 03:37:41;;;;;;;9.75;5.50;;;1.70;99.90;;;;;;5023726;28;20178;-69
2022/12/07 03:40:32;;;;;;;10.10;5.82;;;1.60;99.90;;;;;;5039965;28;20087;-69
2022/12/07 03:43:01;;;;;;;12.88;6.40;;;1.60;99.90;;;;;;5020536;28;20399;-69
2022/12/07 03:45:37;;;;;;;9.52;5.18;;;1.50;99.90;;;;;;5045253;28;20033;-69
2022/12/07 03:48:29;;;;;;;11.90;5.65;;;1.50;99.90;;;;;;5027488;28;20120;-69
2022/12/07 03:51:26;;;;;;;8.57;4.82;;;1.50;99.90;;;;;;5027251;28;20037;-68
2022/12/07 03:54:00;;;;;;;7.85;4.60;;;1.50;99.90;;;;;;5041847;28;20044;-69
2022/12/07 03:56:27;;;;;;;10.98;4.90;;;1.50;99.90;;;;;;5048636;28;20036;-69
2022/12/07 03:58:54;;;;;;;7.38;4.50;;;1.50;99.90;;;;;;5037077;28;20056;-69
2022/12/07 04:01:20;;;;;;;10.35;5.80;;;1.50;99.90;;;;;;5050078;28;20037;-69
2022/12/07 04:03:46;;;;;;;10.50;5.30;;;1.50;99.90;;;;;;5046638;28;20395;-70
2022/12/07 04:06:12;;;;;;;10.57;5.35;;;1.50;99.90;;;;;;5042541;28;20042;-69
2022/12/07 04:08:37;;;;;;;10.27;5.35;;;1.50;99.90;;;;;;5052560;28;20044;-69
2022/12/07 04:11:03;;;;;;;11.02;5.90;;;1.60;99.90;;;;;;5040781;28;20029;-69
2022/12/07 04:13:29;;;;;;;10.43;5.40;;;1.60;99.90;;;;;;5048477;28;20034;-69
2022/12/07 04:15:54;;;;;;;10.85;5.93;;;1.60;99.90;;;;;;5047772;28;20506;-69
2022/12/07 04:18:20;;;;;;;13.23;6.10;;;1.60;99.90;;;;;;5041235;28;20057;-69
2022/12/07 04:20:46;;;;;;;10.27;5.97;;;1.50;99.90;;;;;;5034601;28;20045;-69
2022/12/07 04:23:12;;;;;;;9.95;5.63;;;1.50;99.90;;;;;;5041749;28;20029;-69
2022/12/07 04:25:38;;;;;;;8.98;5.05;;;1.50;99.90;;;;;;5046975;28;20036;-69
2022/12/07 04:28:04;;;;;;;9.98;5.75;;;1.50;99.90;;;;;;5048714;28;20402;-69
2022/12/07 04:30:29;;;;;;;11.30;5.68;;;1.50;99.90;;;;;;5039857;28;20029;-69
2022/12/07 04:32:55;;;;;;;8.70;4.57;;;1.50;99.90;;;;;;5052271;28;20041;-70
2022/12/07 04:35:21;;;;;;;7.53;4.40;;;1.50;99.90;;;;;;5024798;28;20400;-69
2022/12/07 04:37:47;;;;;;;8.00;4.32;;;1.50;99.90;;;;;;5036569;28;20048;-71
2022/12/07 04:40:14;;;;;;;7.88;4.35;;;1.50;99.90;;;;;;5047421;28;20036;-69
2022/12/07 04:42:40;;;;;;;7.57;3.83;;;1.50;99.90;;;;;;5020417;28;20068;-70
2022/12/07 04:45:06;;;;;;;9.45;3.88;;;1.60;99.90;;;;;;5036250;28;20484;-70
2022/12/07 04:47:32;;;;;;;6.13;3.47;;;1.60;99.90;;;;;;5035325;28;20029;-70
2022/12/07 04:49:58;;;;;;;5.75;3.38;;;1.50;99.90;;;;;;5034400;28;20057;-70
2022/12/07 04:52:23;;;;;;;7.53;3.97;;;1.60;99.90;;;;;;5034184;28;20069;-70
2022/12/07 04:54:49;;;;;;;5.43;3.40;;;1.60;99.90;;;;;;5035689;28;20053;-70
2022/12/07 04:57:15;;;;;;;4.93;3.00;;;1.70;99.90;;;;;;5035073;28;20575;-70
2022/12/07 04:59:40;;;;;;;6.28;3.40;;;1.70;99.90;;;;;;5035675;28;20047;-70
2022/12/07 05:02:06;;;;;;;6.10;3.70;;;1.80;99.90;;;;;;5017749;28;20053;-70
2022/12/07 05:04:32;;;;;;;7.53;4.25;;;1.80;99.90;;;;;;5035575;28;20041;-70
2022/12/07 05:06:57;;;;;;;10.75;5.35;;;1.90;99.90;;;;;;5035931;28;20079;-70
2022/12/07 05:09:23;;;;;;;8.30;4.90;;;1.80;99.90;;;;;;5036034;28;20077;-70
2022/12/07 05:11:49;;;;;;;13.38;6.47;;;1.70;99.90;;;;;;5034858;28;20042;-70
2022/12/07 05:14:21;;;;;;;10.82;6.10;;;1.70;99.90;;;;;;5035853;28;20116;-70
2022/12/07 05:16:49;;;;;;;12.10;6.88;;;1.70;99.90;;;;;;5035554;28;20167;-71
2022/12/07 05:19:15;;;;;;;10.15;5.45;;;1.80;99.90;;;;;;5035535;28;20060;-71
2022/12/07 05:21:41;;;;;;;9.40;5.65;;;1.80;99.90;;;;;;5035621;28;20030;-70
2022/12/07 05:24:09;;;;;;;11.05;6.55;;;1.70;99.90;;;;;;5035731;28;20392;-70
2022/12/07 05:26:35;;;;;;;12.68;6.93;;;1.70;99.90;;;;;;5017743;28;20112;-70
2022/12/07 05:29:01;;;;;;;13.13;6.95;;;1.70;99.90;;;;;;5034952;28;20072;-70
2022/12/07 05:31:27;;;;;;;14.23;6.13;;;1.70;99.90;;;;;;5035382;28;20488;-71
2022/12/07 05:33:54;;;;;;;16.13;5.85;;;1.80;99.90;;;;;;5035332;28;20033;-70
2022/12/07 05:36:20;;;;;;;9.75;4.97;;;1.80;99.90;;;;;;5035176;28;20040;-70
2022/12/07 05:38:45;;;;;;;7.28;4.45;;;1.70;99.90;;;;;;5035194;28;20057;-70
2022/12/07 05:44:00;;;;;;;8.43;4.70;;;1.70;99.90;;;;;;5035178;28;20040;-69
2022/12/07 05:46:26;;;;;;;7.07;4.25;;;1.90;99.90;;;;;;5017156;28;20044;-70
2022/12/07 05:48:52;;;;;;;8.57;4.10;;;1.90;99.90;;;;;;5035242;28;20037;-75
2022/12/07 05:51:18;;;;;;;8.70;4.28;;;1.90;99.90;;;;;;5035045;28;20040;-71
2022/12/07 05:53:45;;;;;;;6.25;3.83;;;2.00;99.90;;;;;;5017328;28;20041;-70
2022/12/07 05:56:10;;;;;;;7.70;3.85;;;1.90;99.90;;;;;;5034862;28;20045;-71
2022/12/07 06:01:20;;;;;;;5.00;3.22;;;1.90;99.90;;;;;;5034710;28;20095;-70
2022/12/07 06:03:46;;;;;;;6.60;3.38;;;1.90;99.90;;;;;;5034552;28;20041;-70
2022/12/07 06:06:11;;;;;;;6.55;3.50;;;1.90;99.90;;;;;;5034774;28;20041;-74
2022/12/07 06:08:37;;;;;;;5.80;3.05;;;2.00;99.90;;;;;;5034766;28;20523;-70
2022/12/07 06:13:47;;;;;;;5.90;3.00;;;1.80;99.90;;;;;;5034626;28;20087;-70
2022/12/07 06:16:13;;;;;;;5.18;2.88;;;1.80;99.90;;;;;;5016969;28;20037;-70
2022/12/07 06:18:38;;;;;;;5.65;3.55;;;1.80;99.90;;;;;;5034388;28;20052;-70
2022/12/07 06:21:04;;;;;;;5.57;2.97;;;1.80;99.90;;;;;;5034583;28;20034;-73
2022/12/07 06:23:30;;;;;;;4.95;2.92;;;1.80;99.90;;;;;;5034290;28;20076;-75
2022/12/07 06:25:56;;;;;;;4.93;2.70;;;1.80;99.90;;;;;;5016618;28;20051;-70
2022/12/07 06:28:21;;;;;;;5.78;3.20;;;1.90;99.90;;;;;;5016818;28;20098;-70
2022/12/07 06:30:47;;;;;;;6.32;3.03;;;2.00;99.90;;;;;;5034375;28;20400;-70
2022/12/07 06:33:13;;;;;;;5.00;3.03;;;1.90;99.90;;;;;;5034371;28;20172;-71
2022/12/07 06:35:38;;;;;;;6.53;3.13;;;1.90;99.90;;;;;;5016583;28;20099;-70
2022/12/07 06:38:04;;;;;;;7.07;3.95;;;1.80;99.90;;;;;;5034246;28;20102;-70
2022/12/07 06:40:30;;;;;;;4.97;2.63;;;1.80;99.90;;;;;;5034054;28;20045;-70
2022/12/07 06:42:56;;;;;;;7.45;3.10;;;1.90;99.90;;;;;;5034190;28;20532;-70
2022/12/07 06:45:21;;;;;;;6.32;3.22;;;2.00;99.90;;;;;;5034075;28;20040;-71
2022/12/07 06:47:47;;;;;;;4.15;2.50;;;1.90;99.90;;;;;;5016282;28;20041;-70
2022/12/07 06:50:13;;;;;;;5.00;2.85;;;1.90;99.90;;;;;;5034051;28;20041;-71
2022/12/07 06:52:39;;;;;;;4.95;2.28;;;1.80;99.90;;;;;;5033631;28;20128;-71
2022/12/07 06:55:05;;;;;;;4.93;2.85;;;1.70;99.90;;;;;;5033504;28;20100;-70
2022/12/07 06:57:30;;;;;;;5.40;3.05;;;1.70;99.90;;;;;;5032185;28;20123;-70
2022/12/07 06:59:56;;;;;;;5.57;3.25;;;1.80;99.90;;;;;;5032076;28;20037;-70
2022/12/07 07:02:22;;;;;;;6.03;3.17;;;1.80;99.90;;;;;;5031976;28;20049;-70
2022/12/07 07:04:47;;;;;;;5.32;2.97;;;1.80;99.90;;;;;;5031880;28;20124;-70
2022/12/07 07:07:13;;;;;;;6.10;3.58;;;1.70;99.90;;;;;;5032315;28;20103;-70
2022/12/07 07:09:39;;;;;;;6.93;3.60;;;1.70;99.90;;;;;;5014689;28;20037;-70
2022/12/07 07:12:05;;;;;;;8.70;3.80;;;1.60;99.90;;;;;;5033413;28;20409;-76
2022/12/07 07:14:30;;;;;;;6.32;3.40;;;1.60;99.90;;;;;;5033881;28;20504;-71
2022/12/07 07:16:56;;;;;;;4.43;2.90;;;1.60;99.90;;;;;;5033325;28;20045;-70
2022/12/07 07:19:22;;;;;;;6.53;3.17;;;1.70;99.90;;;;;;5033900;28;20049;-71
2022/12/07 07:21:47;;;;;;;5.78;3.17;;;2.00;99.90;;;;;;5033810;28;20029;-71
2022/12/07 07:24:13;;;;;;;5.30;2.80;;;1.90;99.90;;;;;;5033604;28;20052;-71
2022/12/07 07:26:39;;;;;;;4.88;3.05;;;1.80;99.90;;;;;;5033659;28;20526;-71
2022/12/07 07:29:05;;;;;;;6.85;3.42;;;1.90;99.90;;;;;;5033517;28;20041;-71
2022/12/07 07:31:30;;;;;;;4.85;3.40;;;1.90;99.90;;;;;;5033883;28;20045;-71
2022/12/07 07:33:56;;;;;;;6.75;3.00;;;1.90;99.90;;;;;;5017021;28;20052;-71
2022/12/07 07:36:22;;;;;;;5.53;3.22;;;1.90;99.90;;;;;;5019938;28;20393;-71
2022/12/07 07:38:48;;;;;;;5.00;2.90;;;1.90;99.90;;;;;;5037520;28;20377;-71
2022/12/07 07:41:13;;;;;;;6.78;3.20;;;1.90;99.90;;;;;;5037509;28;20041;-71
2022/12/07 07:43:39;;;;;;;7.28;3.05;;;2.00;99.90;;;;;;5020084;28;20038;-71
2022/12/07 07:46:05;;;;;;;5.78;2.90;;;2.00;99.90;;;;;;5037328;28;20037;-71
2022/12/07 07:48:31;;;;;;;8.85;4.53;;;2.10;99.90;;;;;;5018974;28;20061;-71
2022/12/07 07:50:56;;;;;;;6.63;3.35;;;2.10;99.90;;;;;;5019205;28;20041;-72
2022/12/07 07:53:22;;;;;;;8.07;4.38;;;2.00;99.90;;;;;;5036071;28;20048;-71
2022/12/07 07:55:54;;;;;;;10.45;5.97;;;2.10;99.90;;;;;;5033737;28;20416;-75
2022/12/07 07:58:21;;;;;;;13.02;7.38;;;2.10;99.90;;;;;;5031713;28;20049;-75
2022/12/07 08:00:47;;;;;;;9.25;5.28;;;2.10;99.90;;;;;;5034191;28;20046;-70
2022/12/07 08:03:12;;;;;;;6.85;3.83;;;2.00;99.90;;;;;;5034267;28;20041;-70
2022/12/07 08:05:38;;;;;;;5.40;3.42;;;2.00;99.90;;;;;;5035930;28;20068;-75
2022/12/07 08:08:04;;;;;;;7.18;4.28;;;2.00;99.90;;;;;;5036165;28;20041;-70
2022/12/07 08:10:31;;;;;;;7.30;4.55;;;2.00;99.90;;;;;;5017480;28;20033;-71
2022/12/07 08:13:16;;;;;;;11.00;6.05;;;2.10;99.90;;;;;;5018089;28;20048;-70
2022/12/07 08:15:47;;;;;;;13.40;5.55;;;2.10;99.90;;;;;;5018964;28;20400;-77
2022/12/07 08:18:14;;;;;;;12.15;6.22;;;2.10;99.90;;;;;;5036556;28;20049;-71
2022/12/07 08:20:40;;;;;;;10.88;5.32;;;2.40;99.90;;;;;;5018612;28;20045;-71
2022/12/07 08:23:07;;;;;;;9.48;4.45;;;2.20;99.90;;;;;;5018892;28;20140;-70
2022/12/07 08:25:33;;;;;;;8.15;4.47;;;2.10;99.90;;;;;;5036573;28;20556;-77
2022/12/07 08:28:00;;;;;;;11.55;5.47;;;2.00;99.90;;;;;;5018674;28;20099;-77
2022/12/07 08:30:27;;;;;;;11.15;6.22;;;2.00;99.90;;;;;;5036520;28;20123;-73
2022/12/07 08:32:53;;;;;;;14.52;6.70;;;2.00;99.90;;;;;;5036433;28;20500;-70
2022/12/07 08:35:19;;;;;;;16.77;7.38;;;2.00;99.90;;;;;;5018169;28;20029;-77
2022/12/07 08:37:45;;;;;;;13.27;6.75;;;2.10;99.90;;;;;;5036065;28;20052;-70
2022/12/07 08:40:15;;;;;;;18.05;7.63;;;2.10;99.90;;;;;;5034940;28;20037;-76
2022/12/07 08:42:53;;;;;;;15.60;7.70;;;2.10;99.90;;;;;;5015795;28;20029;-71
2022/12/07 08:45:20;;;;;;;16.58;8.27;;;2.10;99.90;;;;;;5034117;28;20045;-71
2022/12/07 08:48:03;;;;;;;16.85;8.55;;;2.10;99.90;;;;;;5035793;28;20140;-71
2022/12/07 08:50:29;;;;;;;16.42;8.55;;;2.10;99.90;;;;;;5036064;28;20095;-71
2022/12/07 08:52:58;;;;;;;14.35;7.72;;;2.10;99.90;;;;;;5036231;28;20033;-71
2022/12/07 08:55:24;;;;;;;14.70;7.72;;;2.10;99.90;;;;;;5036270;28;20072;-70
2022/12/07 08:57:51;;;;;;;17.40;8.88;;;2.10;99.90;;;;;;5036061;28;20107;-76
2022/12/07 09:00:17;;;;;;;16.17;8.73;;;2.10;99.90;;;;;;5018150;28;20100;-71
2022/12/07 09:02:44;;;;;;;16.38;7.97;;;2.10;99.90;;;;;;5018330;28;20578;-70
2022/12/07 09:05:10;;;;;;;14.75;8.13;;;2.10;99.90;;;;;;5017989;28;20503;-71
2022/12/07 09:07:37;;;;;;;19.55;9.10;;;2.10;99.90;;;;;;5035923;28;20084;-71
2022/12/07 09:10:03;;;;;;;15.88;8.48;;;2.40;99.90;;;;;;5035842;28;20044;-71
2022/12/07 09:12:29;;;;;;;23.08;12.35;;;2.60;99.90;;;;;;5035812;28;20121;-71
2022/12/07 09:14:55;;;;;;;28.98;13.73;;;3.00;99.90;;;;;;5017914;28;20128;-72
2022/12/07 09:17:21;;;;;;;16.65;8.02;;;3.10;99.90;;;;;;5017830;28;20048;-71
2022/12/07 09:19:47;;;;;;;15.00;8.35;;;2.50;99.90;;;;;;5035663;28;20033;-70
2022/12/07 09:22:13;;;;;;;13.98;7.97;;;2.40;99.90;;;;;;5017648;28;20103;-79
2022/12/07 09:24:39;;;;;;;15.02;7.80;;;2.30;99.90;;;;;;5035580;28;20084;-71
2022/12/07 09:27:05;;;;;;;14.82;8.32;;;2.30;99.90;;;;;;5035423;28;20034;-71
2022/12/07 09:29:31;;;;;;;16.33;8.82;;;2.30;99.90;;;;;;5035220;28;20041;-74
2022/12/07 09:31:57;;;;;;;18.90;8.80;;;2.20;99.90;;;;;;5018129;28;20392;-71
2022/12/07 09:34:23;;;;;;;18.58;9.88;;;2.20;99.90;;;;;;5035582;28;20056;-72
2022/12/07 09:36:49;;;;;;;22.23;11.55;;;2.30;99.90;;;;;;5035326;28;20034;-74
2022/12/07 09:39:14;;;;;;;14.77;8.27;;;2.40;99.90;;;;;;5035368;28;20041;-74
2022/12/07 09:41:42;;;;;;;15.25;8.20;;;2.40;99.90;;;;;;5035290;28;20044;-77
2022/12/07 09:44:14;;;;;;;15.45;7.70;;;2.40;99.90;;;;;;5017638;28;20051;-78
2022/12/07 09:46:43;;;;;;;15.43;8.38;;;2.40;99.90;;;;;;5035247;28;20034;-78
2022/12/07 09:49:30;;;;;;;13.27;7.28;;;2.50;99.90;;;;;;5034977;28;20037;-78
2022/12/07 09:52:08;;;;;;;14.38;7.70;;;2.40;99.90;;;;;;5017117;28;20476;-71
2022/12/07 09:54:40;;;;;;;15.32;7.65;;;2.30;99.90;;;;;;5034723;28;20084;-74
2022/12/07 09:57:07;;;;;;;15.52;7.53;;;2.30;99.90;;;;;;5034530;28;20447;-75
2022/12/07 09:59:34;;;;;;;18.15;8.20;;;2.30;99.90;;;;;;5018156;28;20038;-70
2022/12/07 10:02:25;;;;;;;17.33;9.02;;;2.30;99.90;;;;;;5017685;28;20102;-70
2022/12/07 10:04:51;;;;;;;18.52;8.52;;;2.40;99.90;;;;;;5034560;28;20045;-75
2022/12/07 10:07:17;;;;;;;13.25;6.82;;;2.50;99.90;;;;;;5034952;28;20037;-70
2022/12/07 10:09:43;;;;;;;19.08;8.98;;;2.50;99.90;;;;;;5034901;28;20400;-75
2022/12/07 10:12:14;;;;;;;15.27;6.97;;;2.50;99.90;;;;;;5032325;28;20041;-71
2022/12/07 10:15:09;;;;;;;12.55;7.28;;;2.50;99.90;;;;;;5029382;28;20043;-72
2022/12/07 10:17:44;;;;;;;15.32;7.70;;;2.60;99.90;;;;;;5013115;28;20041;-70
2022/12/07 10:20:15;;;;;;;15.18;7.45;;;2.50;99.90;;;;;;5032756;28;20040;-73
2022/12/07 10:23:00;;;;;;;13.77;7.20;;;2.50;99.90;;;;;;5033837;28;20045;-72
2022/12/07 10:25:40;;;;;;;14.55;8.20;;;2.50;99.90;;;;;;5034420;28;20041;-73
2022/12/07 10:28:13;;;;;;;14.18;7.03;;;2.50;99.90;;;;;;5033954;28;20072;-73
2022/12/07 10:31:01;;;;;;;14.15;7.75;;;2.50;99.90;;;;;;5025291;28;20558;-72
2022/12/07 10:33:50;;;;;;;11.82;7.00;;;2.60;99.90;;;;;;5016392;28;20042;-73
2022/12/07 10:36:26;;;;;;;14.75;6.95;;;2.70;99.90;;;;;;5034288;28;20076;-73
2022/12/07 10:39:12;;;;;;;20.27;11.13;;;2.70;99.90;;;;;;5033244;28;20065;-73
2022/12/07 10:41:58;;;;;;;15.52;7.13;;;2.90;99.90;;;;;;5034175;28;20080;-73
2022/12/07 10:44:27;;;;;;;13.68;7.65;;;2.90;99.90;;;;;;5034070;28;20405;-73
2022/12/07 10:47:23;;;;;;;15.93;7.72;;;2.90;99.90;;;;;;5016416;28;20044;-71
2022/12/07 10:50:05;;;;;;;10.35;5.63;;;3.00;99.90;;;;;;5016298;28;20129;-72
2022/12/07 10:52:41;;;;;;;10.88;5.30;;;2.90;99.90;;;;;;5034019;28;20042;-73
2022/12/07 10:55:31;;;;;;;9.50;5.43;;;2.80;99.90;;;;;;5034077;28;20072;-72
2022/12/07 10:58:13;;;;;;;8.18;4.55;;;2.90;99.90;;;;;;5033957;28;20045;-71
2022/12/07 11:00:51;;;;;;;11.68;5.80;;;2.90;99.90;;;;;;5016265;28;20554;-70
2022/12/07 11:03:31;;;;;;;10.15;5.55;;;3.00;99.90;;;;;;5034035;28;20570;-71
2022/12/07 11:06:03;;;;;;;13.60;6.70;;;3.10;99.90;;;;;;5034057;28;20087;-71
2022/12/07 11:08:55;;;;;;;10.85;5.63;;;3.10;99.90;;;;;;5034057;28;20073;-71
2022/12/07 11:11:48;;;;;;;11.48;6.65;;;3.10;99.90;;;;;;5037936;28;20037;-72
2022/12/07 11:14:28;;;;;;;12.50;7.68;;;3.10;99.90;;;;;;5020274;28;20045;-72
2022/12/07 11:17:28;;;;;;;9.95;5.20;;;3.10;99.90;;;;;;5037971;28;20388;-72
2022/12/07 11:20:11;;;;;;;10.95;5.00;;;3.00;99.90;;;;;;4996868;28;20530;-72
2022/12/07 11:22:44;;;;;;;7.88;4.57;;;3.00;99.90;;;;;;5020088;28;20072;-71
2022/12/07 11:25:38;;;;;;;8.38;4.65;;;2.90;99.90;;;;;;5037892;28;20052;-72
2022/12/07 11:28:21;;;;;;;7.82;4.28;;;3.00;99.90;;;;;;5037605;28;20037;-72
2022/12/07 11:30:53;;;;;;;10.40;4.97;;;3.00;99.90;;;;;;5037231;28;20041;-72
2022/12/07 11:33:51;;;;;;;11.10;5.18;;;3.00;99.90;;;;;;5037758;28;20128;-72
2022/12/07 11:36:28;;;;;;;12.65;6.78;;;2.90;99.90;;;;;;5019744;28;20034;-72
2022/12/07 11:38:59;;;;;;;12.18;6.05;;;2.80;99.90;;;;;;5037440;28;20053;-72
2022/12/07 11:41:36;;;;;;;15.60;7.65;;;2.70;99.90;;;;;;5037520;28;20457;-73
2022/12/07 11:44:06;;;;;;;11.82;6.38;;;2.70;99.90;;;;;;5037478;28;20120;-72
2022/12/07 11:46:57;;;;;;;11.25;6.30;;;2.80;99.90;;;;;;5037430;28;20025;-72
2022/12/07 11:49:47;;;;;;;15.90;7.22;;;2.80;99.90;;;;;;5034292;28;20175;-71
2022/12/07 11:52:47;;;;;;;16.90;8.02;;;2.70;99.90;;;;;;5018013;28;20515;-73
2022/12/07 11:55:42;;;;;;;16.60;8.70;;;2.80;99.90;;;;;;5011157;28;20083;-72
2022/12/07 11:58:35;;;;;;;18.95;9.38;;;2.80;99.90;;;;;;5008170;28;20054;-72
2022/12/07 12:01:20;;;;;;;60.95;28.55;;;2.70;99.90;;;;;;5014524;28;20574;-72
2022/12/07 12:04:10;;;;;;;20.77;10.35;;;2.90;99.90;;;;;;5027617;28;20116;-72
2022/12/07 12:06:41;;;;;;;15.40;7.72;;;2.80;99.90;;;;;;5017487;28;20096;-72
2022/12/07 12:09:25;;;;;;;16.52;8.60;;;2.80;99.90;;;;;;5028737;28;20038;-71
2022/12/07 12:12:22;;;;;;;16.90;8.23;;;2.90;99.90;;;;;;5031355;28;20115;-72
2022/12/07 12:14:57;;;;;;;16.45;8.70;;;2.70;99.90;;;;;;5035579;28;20029;-72
2022/12/07 12:17:29;;;;;;;18.45;8.07;;;2.70;99.90;;;;;;5035767;28;20045;-72
2022/12/07 12:20:31;;;;;;;17.35;8.45;;;2.70;99.90;;;;;;5034048;28;20037;-71
2022/12/07 12:23:11;;;;;;;13.15;6.90;;;2.80;99.90;;;;;;5020079;28;20029;-71
2022/12/07 12:25:53;;;;;;;19.40;9.02;;;2.80;99.90;;;;;;5034469;28;20045;-71
2022/12/07 12:28:30;;;;;;;15.57;7.20;;;2.80;99.90;;;;;;5034890;28;20379;-71
2022/12/07 12:31:17;;;;;;;15.35;7.47;;;2.80;99.90;;;;;;5033695;28;20109;-71
2022/12/07 12:34:00;;;;;;;15.25;7.68;;;2.70;99.90;;;;;;5034027;28;20037;-72
2022/12/07 12:36:33;;;;;;;14.05;7.05;;;2.70;99.90;;;;;;5034206;28;20514;-71
2022/12/07 12:38:58;;;;;;;17.77;8.68;;;2.70;99.90;;;;;;5033075;28;20134;-71
2022/12/07 12:42:05;;;;;;;13.52;7.20;;;2.70;99.90;;;;;;5034369;28;20120;-72
2022/12/07 12:44:33;;;;;;;14.70;7.50;;;2.70;99.90;;;;;;5035412;28;20036;-72
2022/12/07 12:47:24;;;;;;;14.27;7.10;;;2.80;99.90;;;;;;5035359;28;20033;-72
2022/12/07 12:50:18;;;;;;;14.17;7.20;;;2.80;99.90;;;;;;5033585;28;20630;-72
2022/12/07 12:53:04;;;;;;;14.52;7.40;;;2.80;99.90;;;;;;5034659;28;20763;-73
2022/12/07 12:56:07;;;;;;;17.50;8.10;;;2.80;99.90;;;;;;5033500;28;20033;-73
2022/12/07 12:58:40;;;;;;;13.77;7.38;;;2.80;99.90;;;;;;5029399;28;20046;-73
2022/12/07 13:01:37;;;;;;;12.73;6.57;;;2.70;99.90;;;;;;5034166;28;20045;-72
2022/12/07 13:04:38;;;;;;;14.25;7.38;;;2.80;99.90;;;;;;5015800;28;20046;-72
2022/12/07 13:07:05;;;;;;;13.98;7.22;;;2.70;99.90;;;;;;5024504;28;20037;-73
2022/12/07 13:09:34;;;;;;;13.98;6.50;;;2.80;99.90;;;;;;5034612;28;20076;-73
2022/12/07 13:12:14;;;;;;;15.18;6.88;;;2.70;99.90;;;;;;5034178;28;20061;-73
2022/12/07 13:14:42;;;;;;;12.95;6.53;;;2.70;99.90;;;;;;5033739;28;20079;-73
2022/12/07 13:17:33;;;;;;;14.75;7.63;;;2.70;99.90;;;;;;5033695;28;20049;-73
2022/12/07 13:20:06;;;;;;;14.70;7.72;;;2.70;99.90;;;;;;4996283;28;20045;-72
2022/12/07 13:22:39;;;;;;;13.77;6.70;;;2.60;99.90;;;;;;5010993;28;20045;-72